sensor_id;sensor_type;location;lat;lon;timestamp;P1;durP1;ratioP1;P2;durP2;ratioP2
63492;SDS011;49638;47.526;10.028;2023-06-19T00:01:43;8.25;;;7.20;;
63492;SDS011;49638;47.526;10.028;2023-06-19T00:04:43;9.20;;;7.45;;
63492;SDS011;49638;47.526;10.028;2023-06-19T00:07:43;9.43;;;7.10;;
63492;SDS011;49638;47.526;10.028;2023-06-19T00:10:44;8.88;;;7.20;;
63492;SDS011;49638;47.526;10.028;2023-06-19T00:13:44;10.02;;;7.72;;
63492;SDS011;49638;47.526;10.028;2023-06-19T00:16:44;8.50;;;6.95;;
63492;SDS011;49638;47.526;10.028;2023-06-19T00:19:44;9.93;;;7.70;;
63492;SDS011;49638;47.526;10.028;2023-06-19T00:22:45;9.45;;;7.80;;
63492;SDS011;49638;47.526;10.028;2023-06-19T00:25:50;10.07;;;7.32;;
63492;SDS011;49638;47.526;10.028;2023-06-19T00:28:50;10.23;;;7.32;;
63492;SDS011;49638;47.526;10.028;2023-06-19T00:31:51;8.18;;;7.32;;
63492;SDS011;49638;47.526;10.028;2023-06-19T00:34:52;9.55;;;7.20;;
63492;SDS011;49638;47.526;10.028;2023-06-19T00:37:52;9.98;;;7.70;;
63492;SDS011;49638;47.526;10.028;2023-06-19T00:40:52;8.35;;;7.30;;
63492;SDS011;49638;47.526;10.028;2023-06-19T00:43:52;9.18;;;7.32;;
63492;SDS011;49638;47.526;10.028;2023-06-19T00:46:57;8.13;;;6.88;;
63492;SDS011;49638;47.526;10.028;2023-06-19T00:49:58;10.63;;;7.88;;
63492;SDS011;49638;47.526;10.028;2023-06-19T00:52:59;9.43;;;7.40;;
63492;SDS011;49638;47.526;10.028;2023-06-19T00:56:02;8.85;;;7.22;;
63492;SDS011;49638;47.526;10.028;2023-06-19T00:59:05;8.48;;;7.22;;
63492;SDS011;49638;47.526;10.028;2023-06-19T01:05:07;8.18;;;6.63;;
63492;SDS011;49638;47.526;10.028;2023-06-19T01:11:31;9.07;;;6.60;;
63492;SDS011;49638;47.526;10.028;2023-06-19T01:14:38;8.18;;;7.05;;
63492;SDS011;49638;47.526;10.028;2023-06-19T01:17:43;10.07;;;7.15;;
63492;SDS011;49638;47.526;10.028;2023-06-19T01:20:45;10.10;;;7.55;;
63492;SDS011;49638;47.526;10.028;2023-06-19T01:23:45;9.32;;;7.05;;
63492;SDS011;49638;47.526;10.028;2023-06-19T01:26:46;9.70;;;7.20;;
63492;SDS011;49638;47.526;10.028;2023-06-19T01:29:47;8.27;;;7.05;;
63492;SDS011;49638;47.526;10.028;2023-06-19T01:32:53;8.82;;;6.55;;
63492;SDS011;49638;47.526;10.028;2023-06-19T01:35:59;8.90;;;7.10;;
63492;SDS011;49638;47.526;10.028;2023-06-19T01:39:01;10.05;;;7.28;;
63492;SDS011;49638;47.526;10.028;2023-06-19T01:42:02;8.20;;;6.95;;
63492;SDS011;49638;47.526;10.028;2023-06-19T01:45:04;9.40;;;7.10;;
63492;SDS011;49638;47.526;10.028;2023-06-19T01:48:05;8.50;;;6.88;;
63492;SDS011;49638;47.526;10.028;2023-06-19T01:51:06;7.72;;;6.78;;
63492;SDS011;49638;47.526;10.028;2023-06-19T01:54:06;10.90;;;7.20;;
63492;SDS011;49638;47.526;10.028;2023-06-19T01:57:07;8.75;;;7.35;;
63492;SDS011;49638;47.526;10.028;2023-06-19T02:00:08;9.60;;;7.40;;
63492;SDS011;49638;47.526;10.028;2023-06-19T02:03:10;9.52;;;8.18;;
63492;SDS011;49638;47.526;10.028;2023-06-19T02:06:10;9.10;;;8.10;;
63492;SDS011;49638;47.526;10.028;2023-06-19T02:09:10;10.63;;;7.47;;
63492;SDS011;49638;47.526;10.028;2023-06-19T02:12:10;9.45;;;8.05;;
63492;SDS011;49638;47.526;10.028;2023-06-19T02:15:11;9.57;;;7.97;;
63492;SDS011;49638;47.526;10.028;2023-06-19T02:18:11;9.48;;;7.88;;
63492;SDS011;49638;47.526;10.028;2023-06-19T02:21:11;10.05;;;7.72;;
63492;SDS011;49638;47.526;10.028;2023-06-19T02:24:11;9.30;;;8.05;;
63492;SDS011;49638;47.526;10.028;2023-06-19T02:27:12;9.35;;;7.65;;
63492;SDS011;49638;47.526;10.028;2023-06-19T02:30:12;9.75;;;7.85;;
63492;SDS011;49638;47.526;10.028;2023-06-19T02:33:13;10.82;;;8.30;;
63492;SDS011;49638;47.526;10.028;2023-06-19T02:36:13;9.82;;;7.60;;
63492;SDS011;49638;47.526;10.028;2023-06-19T02:39:20;8.45;;;7.53;;
63492;SDS011;49638;47.526;10.028;2023-06-19T02:42:21;9.27;;;7.60;;
63492;SDS011;49638;47.526;10.028;2023-06-19T02:45:21;10.35;;;7.90;;
63492;SDS011;49638;47.526;10.028;2023-06-19T02:48:21;9.85;;;8.23;;
63492;SDS011;49638;47.526;10.028;2023-06-19T02:51:23;10.00;;;8.00;;
63492;SDS011;49638;47.526;10.028;2023-06-19T02:54:23;10.38;;;8.07;;
63492;SDS011;49638;47.526;10.028;2023-06-19T02:57:23;11.37;;;8.07;;
63492;SDS011;49638;47.526;10.028;2023-06-19T03:00:24;10.57;;;8.40;;
63492;SDS011;49638;47.526;10.028;2023-06-19T03:03:24;8.90;;;7.75;;
63492;SDS011;49638;47.526;10.028;2023-06-19T03:06:25;9.98;;;8.13;;
63492;SDS011;49638;47.526;10.028;2023-06-19T03:09:26;11.40;;;8.15;;
63492;SDS011;49638;47.526;10.028;2023-06-19T03:12:26;11.30;;;8.77;;
63492;SDS011;49638;47.526;10.028;2023-06-19T03:15:27;9.98;;;7.95;;
63492;SDS011;49638;47.526;10.028;2023-06-19T03:18:27;11.82;;;8.23;;
63492;SDS011;49638;47.526;10.028;2023-06-19T03:21:27;9.52;;;7.88;;
63492;SDS011;49638;47.526;10.028;2023-06-19T03:24:27;9.38;;;8.02;;
63492;SDS011;49638;47.526;10.028;2023-06-19T03:27:28;10.90;;;8.00;;
63492;SDS011;49638;47.526;10.028;2023-06-19T03:30:29;9.52;;;7.97;;
63492;SDS011;49638;47.526;10.028;2023-06-19T03:33:30;10.48;;;8.50;;
63492;SDS011;49638;47.526;10.028;2023-06-19T03:36:30;10.07;;;8.23;;
63492;SDS011;49638;47.526;10.028;2023-06-19T03:39:30;10.68;;;8.70;;
63492;SDS011;49638;47.526;10.028;2023-06-19T03:42:30;11.10;;;8.55;;
63492;SDS011;49638;47.526;10.028;2023-06-19T03:45:31;11.35;;;8.43;;
63492;SDS011;49638;47.526;10.028;2023-06-19T03:48:31;10.98;;;8.15;;
63492;SDS011;49638;47.526;10.028;2023-06-19T03:51:32;12.23;;;8.50;;
63492;SDS011;49638;47.526;10.028;2023-06-19T03:54:32;10.15;;;8.63;;
63492;SDS011;49638;47.526;10.028;2023-06-19T03:57:33;11.20;;;8.97;;
63492;SDS011;49638;47.526;10.028;2023-06-19T04:00:33;10.25;;;8.18;;
63492;SDS011;49638;47.526;10.028;2023-06-19T04:03:33;10.57;;;8.68;;
63492;SDS011;49638;47.526;10.028;2023-06-19T04:06:33;11.32;;;8.43;;
63492;SDS011;49638;47.526;10.028;2023-06-19T04:09:34;12.15;;;8.65;;
63492;SDS011;49638;47.526;10.028;2023-06-19T04:12:34;11.07;;;8.23;;
63492;SDS011;49638;47.526;10.028;2023-06-19T04:15:34;12.07;;;8.70;;
63492;SDS011;49638;47.526;10.028;2023-06-19T04:18:35;9.98;;;8.65;;
63492;SDS011;49638;47.526;10.028;2023-06-19T04:21:35;11.23;;;8.33;;
63492;SDS011;49638;47.526;10.028;2023-06-19T04:24:36;10.77;;;9.10;;
63492;SDS011;49638;47.526;10.028;2023-06-19T04:27:36;10.70;;;8.88;;
63492;SDS011;49638;47.526;10.028;2023-06-19T04:30:36;10.30;;;8.68;;
63492;SDS011;49638;47.526;10.028;2023-06-19T04:33:39;9.73;;;8.63;;
63492;SDS011;49638;47.526;10.028;2023-06-19T04:36:40;9.52;;;8.50;;
63492;SDS011;49638;47.526;10.028;2023-06-19T04:39:40;14.23;;;8.88;;
63492;SDS011;49638;47.526;10.028;2023-06-19T04:42:41;11.07;;;8.75;;
63492;SDS011;49638;47.526;10.028;2023-06-19T04:45:41;10.40;;;8.55;;
63492;SDS011;49638;47.526;10.028;2023-06-19T04:48:42;14.20;;;8.73;;
63492;SDS011;49638;47.526;10.028;2023-06-19T04:51:42;10.13;;;8.83;;
63492;SDS011;49638;47.526;10.028;2023-06-19T04:54:43;13.13;;;8.95;;
63492;SDS011;49638;47.526;10.028;2023-06-19T04:57:43;13.03;;;8.30;;
63492;SDS011;49638;47.526;10.028;2023-06-19T05:00:43;9.63;;;8.00;;
63492;SDS011;49638;47.526;10.028;2023-06-19T05:03:44;9.55;;;8.43;;
63492;SDS011;49638;47.526;10.028;2023-06-19T05:06:46;8.73;;;7.68;;
63492;SDS011;49638;47.526;10.028;2023-06-19T05:09:46;11.40;;;8.30;;
63492;SDS011;49638;47.526;10.028;2023-06-19T05:12:46;11.17;;;8.53;;
63492;SDS011;49638;47.526;10.028;2023-06-19T05:15:47;10.98;;;8.43;;
63492;SDS011;49638;47.526;10.028;2023-06-19T05:18:48;10.95;;;8.55;;
63492;SDS011;49638;47.526;10.028;2023-06-19T05:21:49;12.25;;;9.20;;
63492;SDS011;49638;47.526;10.028;2023-06-19T05:24:49;10.63;;;8.67;;
63492;SDS011;49638;47.526;10.028;2023-06-19T05:27:49;11.90;;;9.02;;
63492;SDS011;49638;47.526;10.028;2023-06-19T05:30:49;10.25;;;9.15;;
63492;SDS011;49638;47.526;10.028;2023-06-19T05:33:50;13.93;;;9.82;;
63492;SDS011;49638;47.526;10.028;2023-06-19T05:36:50;11.10;;;8.90;;
63492;SDS011;49638;47.526;10.028;2023-06-19T05:39:50;11.20;;;8.83;;
63492;SDS011;49638;47.526;10.028;2023-06-19T05:42:51;10.77;;;8.63;;
63492;SDS011;49638;47.526;10.028;2023-06-19T05:45:53;8.35;;;7.45;;
63492;SDS011;49638;47.526;10.028;2023-06-19T05:48:54;9.77;;;7.60;;
63492;SDS011;49638;47.526;10.028;2023-06-19T05:51:54;7.78;;;6.97;;
63492;SDS011;49638;47.526;10.028;2023-06-19T05:54:58;12.63;;;6.53;;
63492;SDS011;49638;47.526;10.028;2023-06-19T05:57:59;7.68;;;6.60;;
63492;SDS011;49638;47.526;10.028;2023-06-19T06:00:59;7.90;;;6.55;;
63492;SDS011;49638;47.526;10.028;2023-06-19T06:03:59;9.53;;;6.93;;
63492;SDS011;49638;47.526;10.028;2023-06-19T06:07:01;7.15;;;6.45;;
63492;SDS011;49638;47.526;10.028;2023-06-19T06:10:02;7.68;;;6.65;;
63492;SDS011;49638;47.526;10.028;2023-06-19T06:13:02;7.47;;;6.78;;
63492;SDS011;49638;47.526;10.028;2023-06-19T06:16:03;8.70;;;6.97;;
63492;SDS011;49638;47.526;10.028;2023-06-19T06:19:03;8.10;;;6.93;;
63492;SDS011;49638;47.526;10.028;2023-06-19T06:22:03;11.80;;;8.23;;
63492;SDS011;49638;47.526;10.028;2023-06-19T06:25:04;8.77;;;7.60;;
63492;SDS011;49638;47.526;10.028;2023-06-19T06:28:05;8.05;;;7.20;;
63492;SDS011;49638;47.526;10.028;2023-06-19T06:31:05;9.07;;;7.60;;
63492;SDS011;49638;47.526;10.028;2023-06-19T06:34:05;8.60;;;7.70;;
63492;SDS011;49638;47.526;10.028;2023-06-19T06:37:05;8.18;;;7.25;;
63492;SDS011;49638;47.526;10.028;2023-06-19T06:40:06;9.80;;;7.43;;
63492;SDS011;49638;47.526;10.028;2023-06-19T06:43:11;9.52;;;7.68;;
63492;SDS011;49638;47.526;10.028;2023-06-19T06:46:11;8.18;;;7.30;;
63492;SDS011;49638;47.526;10.028;2023-06-19T06:49:11;8.87;;;7.00;;
63492;SDS011;49638;47.526;10.028;2023-06-19T06:52:12;10.57;;;7.38;;
63492;SDS011;49638;47.526;10.028;2023-06-19T06:55:13;7.97;;;6.93;;
63492;SDS011;49638;47.526;10.028;2023-06-19T06:58:13;7.70;;;6.38;;
63492;SDS011;49638;47.526;10.028;2023-06-19T07:01:14;8.05;;;6.85;;
63492;SDS011;49638;47.526;10.028;2023-06-19T07:04:14;7.50;;;6.78;;
63492;SDS011;49638;47.526;10.028;2023-06-19T07:07:14;6.85;;;6.15;;
63492;SDS011;49638;47.526;10.028;2023-06-19T07:10:15;6.70;;;6.00;;
63492;SDS011;49638;47.526;10.028;2023-06-19T07:13:15;6.68;;;5.93;;
63492;SDS011;49638;47.526;10.028;2023-06-19T07:16:15;6.63;;;5.97;;
63492;SDS011;49638;47.526;10.028;2023-06-19T07:19:15;6.77;;;5.30;;
63492;SDS011;49638;47.526;10.028;2023-06-19T07:22:16;7.57;;;5.72;;
63492;SDS011;49638;47.526;10.028;2023-06-19T07:25:16;5.80;;;5.18;;
63492;SDS011;49638;47.526;10.028;2023-06-19T07:28:17;6.28;;;5.40;;
63492;SDS011;49638;47.526;10.028;2023-06-19T07:31:17;7.45;;;5.72;;
63492;SDS011;49638;47.526;10.028;2023-06-19T07:34:17;8.73;;;7.17;;
63492;SDS011;49638;47.526;10.028;2023-06-19T07:37:18;7.80;;;7.00;;
63492;SDS011;49638;47.526;10.028;2023-06-19T07:40:18;7.30;;;6.45;;
63492;SDS011;49638;47.526;10.028;2023-06-19T07:43:18;8.18;;;6.45;;
63492;SDS011;49638;47.526;10.028;2023-06-19T07:46:19;6.93;;;6.22;;
63492;SDS011;49638;47.526;10.028;2023-06-19T07:49:19;8.13;;;6.38;;
63492;SDS011;49638;47.526;10.028;2023-06-19T07:52:19;6.07;;;5.50;;
63492;SDS011;49638;47.526;10.028;2023-06-19T07:55:19;6.30;;;5.70;;
63492;SDS011;49638;47.526;10.028;2023-06-19T07:58:20;5.78;;;4.90;;
63492;SDS011;49638;47.526;10.028;2023-06-19T08:01:20;4.40;;;4.00;;
63492;SDS011;49638;47.526;10.028;2023-06-19T08:04:20;4.37;;;3.97;;
63492;SDS011;49638;47.526;10.028;2023-06-19T08:07:20;5.10;;;4.50;;
63492;SDS011;49638;47.526;10.028;2023-06-19T08:10:21;7.18;;;3.95;;
63492;SDS011;49638;47.526;10.028;2023-06-19T08:13:21;4.80;;;3.70;;
63492;SDS011;49638;47.526;10.028;2023-06-19T08:16:24;4.38;;;3.83;;
63492;SDS011;49638;47.526;10.028;2023-06-19T08:19:25;5.38;;;4.03;;
63492;SDS011;49638;47.526;10.028;2023-06-19T08:22:25;4.80;;;4.10;;
63492;SDS011;49638;47.526;10.028;2023-06-19T08:25:25;4.80;;;4.40;;
63492;SDS011;49638;47.526;10.028;2023-06-19T08:28:25;7.50;;;5.33;;
63492;SDS011;49638;47.526;10.028;2023-06-19T08:31:26;4.65;;;4.25;;
63492;SDS011;49638;47.526;10.028;2023-06-19T08:34:27;5.22;;;4.70;;
63492;SDS011;49638;47.526;10.028;2023-06-19T08:37:28;5.72;;;4.85;;
63492;SDS011;49638;47.526;10.028;2023-06-19T08:40:28;5.60;;;5.00;;
63492;SDS011;49638;47.526;10.028;2023-06-19T08:43:29;6.05;;;5.13;;
63492;SDS011;49638;47.526;10.028;2023-06-19T08:46:29;6.67;;;5.17;;
63492;SDS011;49638;47.526;10.028;2023-06-19T08:49:29;5.72;;;5.22;;
63492;SDS011;49638;47.526;10.028;2023-06-19T08:52:31;7.15;;;5.75;;
63492;SDS011;49638;47.526;10.028;2023-06-19T08:55:31;6.17;;;5.57;;
63492;SDS011;49638;47.526;10.028;2023-06-19T08:58:31;7.73;;;5.80;;
63492;SDS011;49638;47.526;10.028;2023-06-19T09:01:31;6.07;;;5.47;;
63492;SDS011;49638;47.526;10.028;2023-06-19T09:04:32;7.97;;;6.15;;
63492;SDS011;49638;47.526;10.028;2023-06-19T09:07:33;6.35;;;5.75;;
63492;SDS011;49638;47.526;10.028;2023-06-19T09:10:34;6.68;;;5.95;;
63492;SDS011;49638;47.526;10.028;2023-06-19T09:13:34;6.90;;;6.20;;
63492;SDS011;49638;47.526;10.028;2023-06-19T09:16:41;6.75;;;6.15;;
63492;SDS011;49638;47.526;10.028;2023-06-19T09:19:48;6.65;;;6.05;;
63492;SDS011;49638;47.526;10.028;2023-06-19T09:22:49;7.15;;;6.45;;
63492;SDS011;49638;47.526;10.028;2023-06-19T09:25:54;7.38;;;6.40;;
63492;SDS011;49638;47.526;10.028;2023-06-19T09:28:57;7.32;;;5.95;;
63492;SDS011;49638;47.526;10.028;2023-06-19T09:31:57;7.05;;;6.22;;
63492;SDS011;49638;47.526;10.028;2023-06-19T09:34:58;7.10;;;6.20;;
63492;SDS011;49638;47.526;10.028;2023-06-19T09:37:58;7.10;;;6.38;;
63492;SDS011;49638;47.526;10.028;2023-06-19T09:41:02;6.28;;;5.30;;
63492;SDS011;49638;47.526;10.028;2023-06-19T09:44:04;6.75;;;5.43;;
63492;SDS011;49638;47.526;10.028;2023-06-19T09:47:16;6.55;;;5.95;;
63492;SDS011;49638;47.526;10.028;2023-06-19T09:50:22;5.63;;;4.93;;
63492;SDS011;49638;47.526;10.028;2023-06-19T09:53:27;5.97;;;5.15;;
63492;SDS011;49638;47.526;10.028;2023-06-19T09:56:27;5.88;;;5.28;;
63492;SDS011;49638;47.526;10.028;2023-06-19T09:59:28;5.93;;;5.32;;
63492;SDS011;49638;47.526;10.028;2023-06-19T10:02:28;5.47;;;4.97;;
63492;SDS011;49638;47.526;10.028;2023-06-19T10:05:29;5.97;;;5.32;;
63492;SDS011;49638;47.526;10.028;2023-06-19T10:08:31;6.75;;;5.75;;
63492;SDS011;49638;47.526;10.028;2023-06-19T10:11:48;5.95;;;5.03;;
63492;SDS011;49638;47.526;10.028;2023-06-19T10:14:51;8.55;;;5.50;;
63492;SDS011;49638;47.526;10.028;2023-06-19T10:17:52;6.45;;;5.75;;
63492;SDS011;49638;47.526;10.028;2023-06-19T10:21:00;7.47;;;5.75;;
63492;SDS011;49638;47.526;10.028;2023-06-19T10:24:01;5.78;;;5.18;;
63492;SDS011;49638;47.526;10.028;2023-06-19T10:27:02;5.18;;;4.78;;
63492;SDS011;49638;47.526;10.028;2023-06-19T10:30:02;7.25;;;4.97;;
63492;SDS011;49638;47.526;10.028;2023-06-19T10:33:04;5.78;;;5.18;;
63492;SDS011;49638;47.526;10.028;2023-06-19T10:36:14;6.50;;;5.20;;
63492;SDS011;49638;47.526;10.028;2023-06-19T10:39:16;5.63;;;5.13;;
63492;SDS011;49638;47.526;10.028;2023-06-19T10:42:16;5.67;;;5.17;;
63492;SDS011;49638;47.526;10.028;2023-06-19T10:45:16;5.70;;;5.10;;
63492;SDS011;49638;47.526;10.028;2023-06-19T10:48:20;6.18;;;5.45;;
63492;SDS011;49638;47.526;10.028;2023-06-19T10:51:22;5.80;;;5.28;;
63492;SDS011;49638;47.526;10.028;2023-06-19T10:54:23;6.25;;;5.63;;
63492;SDS011;49638;47.526;10.028;2023-06-19T10:57:27;6.10;;;5.50;;
63492;SDS011;49638;47.526;10.028;2023-06-19T11:00:31;7.22;;;5.63;;
63492;SDS011;49638;47.526;10.028;2023-06-19T11:03:33;5.43;;;4.90;;
63492;SDS011;49638;47.526;10.028;2023-06-19T11:06:34;5.70;;;4.78;;
63492;SDS011;49638;47.526;10.028;2023-06-19T11:09:36;5.18;;;4.68;;
63492;SDS011;49638;47.526;10.028;2023-06-19T11:12:37;4.68;;;4.18;;
63492;SDS011;49638;47.526;10.028;2023-06-19T11:15:37;4.63;;;4.17;;
63492;SDS011;49638;47.526;10.028;2023-06-19T11:18:37;3.92;;;3.63;;
63492;SDS011;49638;47.526;10.028;2023-06-19T11:21:37;4.43;;;4.00;;
63492;SDS011;49638;47.526;10.028;2023-06-19T11:24:45;5.32;;;4.10;;
63492;SDS011;49638;47.526;10.028;2023-06-19T11:27:46;5.10;;;4.70;;
63492;SDS011;49638;47.526;10.028;2023-06-19T11:30:57;5.30;;;4.30;;
63492;SDS011;49638;47.526;10.028;2023-06-19T11:33:59;4.50;;;4.10;;
63492;SDS011;49638;47.526;10.028;2023-06-19T11:37:02;4.60;;;3.85;;
63492;SDS011;49638;47.526;10.028;2023-06-19T11:40:15;4.13;;;3.72;;
63492;SDS011;49638;47.526;10.028;2023-06-19T11:46:28;4.28;;;3.88;;
63492;SDS011;49638;47.526;10.028;2023-06-19T11:49:34;4.20;;;3.83;;
63492;SDS011;49638;47.526;10.028;2023-06-19T11:52:35;5.88;;;4.35;;
63492;SDS011;49638;47.526;10.028;2023-06-19T11:55:35;5.25;;;3.47;;
63492;SDS011;49638;47.526;10.028;2023-06-19T11:58:35;4.43;;;4.03;;
63492;SDS011;49638;47.526;10.028;2023-06-19T12:01:36;4.37;;;3.97;;
63492;SDS011;49638;47.526;10.028;2023-06-19T12:04:36;4.75;;;4.35;;
63492;SDS011;49638;47.526;10.028;2023-06-19T12:07:37;4.10;;;3.80;;
63492;SDS011;49638;47.526;10.028;2023-06-19T12:10:37;4.90;;;4.40;;
63492;SDS011;49638;47.526;10.028;2023-06-19T12:13:37;4.43;;;4.03;;
63492;SDS011;49638;47.526;10.028;2023-06-19T12:16:37;5.60;;;4.10;;
63492;SDS011;49638;47.526;10.028;2023-06-19T12:19:38;4.55;;;4.00;;
63492;SDS011;49638;47.526;10.028;2023-06-19T12:22:38;5.18;;;4.40;;
63492;SDS011;49638;47.526;10.028;2023-06-19T12:25:38;4.70;;;4.30;;
63492;SDS011;49638;47.526;10.028;2023-06-19T12:28:38;4.73;;;4.33;;
63492;SDS011;49638;47.526;10.028;2023-06-19T12:31:39;6.50;;;4.73;;
63492;SDS011;49638;47.526;10.028;2023-06-19T12:34:39;5.50;;;5.00;;
63492;SDS011;49638;47.526;10.028;2023-06-19T12:37:40;6.43;;;5.00;;
63492;SDS011;49638;47.526;10.028;2023-06-19T12:40:40;6.57;;;4.93;;
63492;SDS011;49638;47.526;10.028;2023-06-19T12:43:40;5.38;;;4.88;;
63492;SDS011;49638;47.526;10.028;2023-06-19T12:46:41;5.97;;;5.03;;
63492;SDS011;49638;47.526;10.028;2023-06-19T12:49:41;5.35;;;4.85;;
63492;SDS011;49638;47.526;10.028;2023-06-19T12:52:41;5.70;;;4.60;;
63492;SDS011;49638;47.526;10.028;2023-06-19T12:55:42;5.43;;;4.80;;
63492;SDS011;49638;47.526;10.028;2023-06-19T12:58:42;5.32;;;4.82;;
63492;SDS011;49638;47.526;10.028;2023-06-19T13:01:43;5.50;;;5.00;;
63492;SDS011;49638;47.526;10.028;2023-06-19T13:04:43;5.53;;;5.03;;
63492;SDS011;49638;47.526;10.028;2023-06-19T13:07:43;5.28;;;4.80;;
63492;SDS011;49638;47.526;10.028;2023-06-19T13:10:43;5.45;;;4.60;;
63492;SDS011;49638;47.526;10.028;2023-06-19T13:13:44;5.47;;;4.93;;
63492;SDS011;49638;47.526;10.028;2023-06-19T13:16:44;5.13;;;4.65;;
63492;SDS011;49638;47.526;10.028;2023-06-19T13:19:44;5.47;;;4.90;;
63492;SDS011;49638;47.526;10.028;2023-06-19T13:22:45;5.30;;;4.80;;
63492;SDS011;49638;47.526;10.028;2023-06-19T13:25:45;5.47;;;4.90;;
63492;SDS011;49638;47.526;10.028;2023-06-19T13:28:45;5.67;;;4.80;;
63492;SDS011;49638;47.526;10.028;2023-06-19T13:31:46;6.18;;;4.90;;
63492;SDS011;49638;47.526;10.028;2023-06-19T13:34:46;6.22;;;5.38;;
63492;SDS011;49638;47.526;10.028;2023-06-19T13:37:47;5.60;;;5.10;;
63492;SDS011;49638;47.526;10.028;2023-06-19T13:40:47;5.72;;;5.03;;
63492;SDS011;49638;47.526;10.028;2023-06-19T13:43:47;5.60;;;5.10;;
63492;SDS011;49638;47.526;10.028;2023-06-19T13:46:48;6.17;;;5.57;;
63492;SDS011;49638;47.526;10.028;2023-06-19T13:49:49;5.45;;;4.95;;
63492;SDS011;49638;47.526;10.028;2023-06-19T13:52:49;6.93;;;5.30;;
63492;SDS011;49638;47.526;10.028;2023-06-19T13:55:49;5.70;;;4.90;;
63492;SDS011;49638;47.526;10.028;2023-06-19T13:58:50;5.78;;;5.00;;
63492;SDS011;49638;47.526;10.028;2023-06-19T14:01:50;5.57;;;5.07;;
63492;SDS011;49638;47.526;10.028;2023-06-19T14:04:51;6.03;;;5.45;;
63492;SDS011;49638;47.526;10.028;2023-06-19T14:07:51;5.97;;;5.37;;
63492;SDS011;49638;47.526;10.028;2023-06-19T14:10:52;6.22;;;5.63;;
63492;SDS011;49638;47.526;10.028;2023-06-19T14:13:52;6.83;;;5.73;;
63492;SDS011;49638;47.526;10.028;2023-06-19T14:16:52;7.13;;;5.83;;
63492;SDS011;49638;47.526;10.028;2023-06-19T14:19:52;6.60;;;5.87;;
63492;SDS011;49638;47.526;10.028;2023-06-19T14:22:55;6.38;;;5.78;;
63492;SDS011;49638;47.526;10.028;2023-06-19T14:25:55;5.75;;;5.25;;
63492;SDS011;49638;47.526;10.028;2023-06-19T14:28:55;6.72;;;6.03;;
63492;SDS011;49638;47.526;10.028;2023-06-19T14:31:57;7.97;;;5.65;;
63492;SDS011;49638;47.526;10.028;2023-06-19T14:34:57;6.30;;;5.70;;
63492;SDS011;49638;47.526;10.028;2023-06-19T14:37:57;6.90;;;6.17;;
63492;SDS011;49638;47.526;10.028;2023-06-19T14:40:57;6.23;;;5.63;;
63492;SDS011;49638;47.526;10.028;2023-06-19T14:43:59;7.00;;;6.30;;
63492;SDS011;49638;47.526;10.028;2023-06-19T14:46:59;7.57;;;6.03;;
63492;SDS011;49638;47.526;10.028;2023-06-19T14:49:59;7.40;;;5.82;;
63492;SDS011;49638;47.526;10.028;2023-06-19T14:53:00;8.27;;;6.00;;
63492;SDS011;49638;47.526;10.028;2023-06-19T14:56:00;12.00;;;6.57;;
63492;SDS011;49638;47.526;10.028;2023-06-19T14:59:00;8.17;;;5.63;;
63492;SDS011;49638;47.526;10.028;2023-06-19T15:02:01;8.73;;;6.18;;
63492;SDS011;49638;47.526;10.028;2023-06-19T15:05:02;5.93;;;5.32;;
63492;SDS011;49638;47.526;10.028;2023-06-19T15:08:03;6.70;;;6.03;;
63492;SDS011;49638;47.526;10.028;2023-06-19T15:11:05;6.57;;;5.93;;
63492;SDS011;49638;47.526;10.028;2023-06-19T15:14:05;6.90;;;6.20;;
63492;SDS011;49638;47.526;10.028;2023-06-19T15:17:06;6.75;;;6.05;;
63492;SDS011;49638;47.526;10.028;2023-06-19T15:20:06;6.95;;;6.25;;
63492;SDS011;49638;47.526;10.028;2023-06-19T15:23:08;6.70;;;6.10;;
63492;SDS011;49638;47.526;10.028;2023-06-19T15:26:09;6.35;;;5.75;;
63492;SDS011;49638;47.526;10.028;2023-06-19T15:29:10;7.30;;;6.15;;
63492;SDS011;49638;47.526;10.028;2023-06-19T15:32:10;7.47;;;6.70;;
63492;SDS011;49638;47.526;10.028;2023-06-19T15:35:10;6.68;;;5.90;;
63492;SDS011;49638;47.526;10.028;2023-06-19T15:38:11;6.73;;;6.10;;
63492;SDS011;49638;47.526;10.028;2023-06-19T15:41:11;6.50;;;5.90;;
63492;SDS011;49638;47.526;10.028;2023-06-19T15:44:11;7.40;;;6.60;;
63492;SDS011;49638;47.526;10.028;2023-06-19T15:47:11;6.57;;;5.87;;
63492;SDS011;49638;47.526;10.028;2023-06-19T15:50:11;6.40;;;5.80;;
63492;SDS011;49638;47.526;10.028;2023-06-19T15:53:12;7.20;;;6.50;;
63492;SDS011;49638;47.526;10.028;2023-06-19T15:56:12;6.57;;;5.97;;
63492;SDS011;49638;47.526;10.028;2023-06-19T15:59:13;7.10;;;6.45;;
63492;SDS011;49638;47.526;10.028;2023-06-19T16:02:13;6.80;;;6.10;;
63492;SDS011;49638;47.526;10.028;2023-06-19T16:05:14;7.77;;;6.37;;
63492;SDS011;49638;47.526;10.028;2023-06-19T16:08:15;7.00;;;6.22;;
63492;SDS011;49638;47.526;10.028;2023-06-19T16:11:15;6.87;;;6.17;;
63492;SDS011;49638;47.526;10.028;2023-06-19T16:14:15;7.33;;;6.63;;
63492;SDS011;49638;47.526;10.028;2023-06-19T16:17:16;7.07;;;6.38;;
63492;SDS011;49638;47.526;10.028;2023-06-19T16:20:17;9.75;;;7.00;;
63492;SDS011;49638;47.526;10.028;2023-06-19T16:23:17;7.37;;;6.43;;
63492;SDS011;49638;47.526;10.028;2023-06-19T16:26:17;7.50;;;6.80;;
63492;SDS011;49638;47.526;10.028;2023-06-19T16:29:17;7.40;;;6.70;;
63492;SDS011;49638;47.526;10.028;2023-06-19T16:32:18;7.68;;;6.88;;
63492;SDS011;49638;47.526;10.028;2023-06-19T16:35:18;7.30;;;6.57;;
63492;SDS011;49638;47.526;10.028;2023-06-19T16:38:22;8.20;;;7.15;;
63492;SDS011;49638;47.526;10.028;2023-06-19T16:41:24;9.10;;;7.10;;
63492;SDS011;49638;47.526;10.028;2023-06-19T16:44:24;7.93;;;7.13;;
63492;SDS011;49638;47.526;10.028;2023-06-19T16:47:25;7.32;;;6.57;;
63492;SDS011;49638;47.526;10.028;2023-06-19T16:50:27;8.07;;;7.13;;
63492;SDS011;49638;47.526;10.028;2023-06-19T16:53:27;7.70;;;6.53;;
63492;SDS011;49638;47.526;10.028;2023-06-19T16:56:27;7.95;;;6.97;;
63492;SDS011;49638;47.526;10.028;2023-06-19T16:59:28;8.70;;;6.80;;
63492;SDS011;49638;47.526;10.028;2023-06-19T17:02:28;8.03;;;7.27;;
63492;SDS011;49638;47.526;10.028;2023-06-19T17:05:29;7.70;;;6.97;;
63492;SDS011;49638;47.526;10.028;2023-06-19T17:08:29;8.27;;;7.20;;
63492;SDS011;49638;47.526;10.028;2023-06-19T17:11:29;10.18;;;7.25;;
63492;SDS011;49638;47.526;10.028;2023-06-19T17:14:29;8.13;;;6.90;;
63492;SDS011;49638;47.526;10.028;2023-06-19T17:17:30;8.07;;;7.27;;
63492;SDS011;49638;47.526;10.028;2023-06-19T17:20:30;9.13;;;7.57;;
63492;SDS011;49638;47.526;10.028;2023-06-19T17:23:30;9.03;;;7.80;;
63492;SDS011;49638;47.526;10.028;2023-06-19T17:26:31;12.03;;;7.63;;
63492;SDS011;49638;47.526;10.028;2023-06-19T17:29:31;7.87;;;7.07;;
63492;SDS011;49638;47.526;10.028;2023-06-19T17:32:31;8.73;;;7.13;;
63492;SDS011;49638;47.526;10.028;2023-06-19T17:35:33;8.20;;;7.40;;
63492;SDS011;49638;47.526;10.028;2023-06-19T17:38:33;7.30;;;6.60;;
63492;SDS011;49638;47.526;10.028;2023-06-19T17:41:33;8.07;;;6.60;;
63492;SDS011;49638;47.526;10.028;2023-06-19T17:44:35;8.77;;;7.78;;
63492;SDS011;49638;47.526;10.028;2023-06-19T17:47:35;7.93;;;7.17;;
63492;SDS011;49638;47.526;10.028;2023-06-19T17:50:36;9.13;;;7.40;;
63492;SDS011;49638;47.526;10.028;2023-06-19T17:53:36;9.60;;;6.87;;
63492;SDS011;49638;47.526;10.028;2023-06-19T17:56:36;7.43;;;6.73;;
63492;SDS011;49638;47.526;10.028;2023-06-19T17:59:36;8.25;;;6.93;;
63492;SDS011;49638;47.526;10.028;2023-06-19T18:02:36;14.63;;;7.20;;